createdAt,value
2023-05-19T00:01:56.391Z,18.54
2023-05-19T00:04:23.966Z,18.54
2023-05-19T00:06:51.653Z,18.54
2023-05-19T00:09:19.422Z,18.54
2023-05-19T00:11:46.750Z,18.55
2023-05-19T00:14:14.283Z,18.56
2023-05-19T00:16:42.421Z,18.58
2023-05-19T00:19:09.579Z,18.62
2023-05-19T00:21:42.070Z,18.66
2023-05-19T00:24:09.613Z,18.68
2023-05-19T00:26:37.355Z,18.73
2023-05-19T00:29:05.413Z,18.77
2023-05-19T00:31:33.501Z,18.80
2023-05-19T00:34:01.313Z,18.85
2023-05-19T00:36:29.083Z,18.89
2023-05-19T00:38:56.765Z,18.93
2023-05-19T00:41:24.055Z,18.96
2023-05-19T00:43:50.991Z,18.99
2023-05-19T00:46:24.163Z,19.01
2023-05-19T00:48:51.112Z,19.03
2023-05-19T00:51:19.138Z,19.04
2023-05-19T00:53:48.763Z,19.06
2023-05-19T00:56:18.508Z,19.08
2023-05-19T00:58:45.512Z,19.09
2023-05-19T01:01:14.006Z,19.09
2023-05-19T01:03:42.392Z,19.09
2023-05-19T01:06:15.443Z,19.09
2023-05-19T01:08:43.161Z,19.05
2023-05-19T01:11:10.264Z,19.01
2023-05-19T01:13:42.964Z,19.00
2023-05-19T01:16:14.858Z,18.98
2023-05-19T01:18:42.170Z,18.96
2023-05-19T01:21:35.713Z,18.93
2023-05-19T01:24:17.401Z,18.91
2023-05-19T01:27:09.583Z,18.89
2023-05-19T01:30:14.656Z,18.85
2023-05-19T01:32:42.338Z,18.80
2023-05-19T01:35:09.399Z,18.76
2023-05-19T01:37:47.016Z,18.70
2023-05-19T01:40:14.268Z,18.66
2023-05-19T01:42:41.674Z,18.62
2023-05-19T01:45:10.193Z,18.57
2023-05-19T01:47:41.895Z,18.53
2023-05-19T01:50:09.761Z,18.48
2023-05-19T01:52:37.205Z,18.40
2023-05-19T01:55:05.207Z,18.34
2023-05-19T01:57:53.828Z,18.28
2023-05-19T02:00:54.267Z,18.24
2023-05-19T02:03:52.745Z,18.16
2023-05-19T02:06:36.669Z,18.07
2023-05-19T02:09:58.894Z,18.03
2023-05-19T02:12:28.824Z,17.98
2023-05-19T02:15:17.458Z,17.95
2023-05-19T02:17:50.301Z,17.91
2023-05-19T02:20:17.732Z,17.89
2023-05-19T02:22:45.321Z,17.88
2023-05-19T02:25:13.555Z,17.89
2023-05-19T02:27:41.409Z,17.90
2023-05-19T02:30:09.133Z,17.87
2023-05-19T02:32:37.740Z,17.86
2023-05-19T02:35:06.154Z,17.83
2023-05-19T02:37:34.945Z,17.82
2023-05-19T02:40:09.249Z,17.80
2023-05-19T02:42:36.705Z,17.77
2023-05-19T02:45:07.360Z,17.74
2023-05-19T02:47:37.093Z,17.70
2023-05-19T02:50:05.894Z,17.66
2023-05-19T02:52:32.796Z,17.63
2023-05-19T02:55:00.065Z,17.60
2023-05-19T02:57:28.496Z,17.57
2023-05-19T02:59:55.825Z,17.55
2023-05-19T03:02:23.059Z,17.53
2023-05-19T03:04:57.539Z,17.49
2023-05-19T03:07:24.634Z,17.45
2023-05-19T03:09:52.045Z,17.43
2023-05-19T03:12:24.108Z,17.43
2023-05-19T03:14:51.600Z,17.43
2023-05-19T03:17:18.762Z,17.43
2023-05-19T03:19:45.878Z,17.43
2023-05-19T03:22:13.222Z,17.43
2023-05-19T03:24:41.681Z,17.43
2023-05-19T03:27:08.565Z,17.44
2023-05-19T03:29:36.748Z,17.45
2023-05-19T03:32:03.949Z,17.46
2023-05-19T03:34:32.141Z,17.47
2023-05-19T03:36:59.203Z,17.49
2023-05-19T03:39:26.201Z,17.51
2023-05-19T03:41:53.184Z,17.53
2023-05-19T03:44:20.092Z,17.55
2023-05-19T03:46:47.086Z,17.58
2023-05-19T03:49:42.802Z,17.58
2023-05-19T03:52:15.235Z,17.60
2023-05-19T03:54:50.819Z,17.63
2023-05-19T03:57:19.623Z,17.67
2023-05-19T03:59:47.577Z,17.71
2023-05-19T04:02:14.562Z,17.74
2023-05-19T04:04:41.559Z,17.75
2023-05-19T04:07:08.515Z,17.77
2023-05-19T04:09:42.201Z,17.79
2023-05-19T04:12:09.255Z,17.80
2023-05-19T04:14:36.314Z,17.82
2023-05-19T04:17:03.502Z,17.88
2023-05-19T04:19:30.979Z,17.92
2023-05-19T04:21:58.261Z,17.98
2023-05-19T04:24:25.698Z,18.00
2023-05-19T04:26:53.072Z,18.05
2023-05-19T04:29:19.980Z,18.11
2023-05-19T04:31:48.536Z,18.18
2023-05-19T04:34:19.373Z,18.23
2023-05-19T04:36:46.484Z,18.29
2023-05-19T04:39:14.048Z,18.34
2023-05-19T04:41:44.308Z,18.39
2023-05-19T04:44:12.996Z,18.46
2023-05-19T04:46:39.899Z,18.53
2023-05-19T04:49:07.302Z,18.58
2023-05-19T04:51:35.300Z,18.66
2023-05-19T04:54:03.490Z,18.73
2023-05-19T04:56:36.314Z,18.81
2023-05-19T04:59:03.199Z,18.87
2023-05-19T05:01:32.537Z,18.94
2023-05-19T05:04:01.846Z,19.01
2023-05-19T05:06:31.210Z,19.07
2023-05-19T05:08:59.511Z,19.12
2023-05-19T05:11:27.148Z,19.19
2023-05-19T05:13:57.433Z,19.25
2023-05-19T05:16:26.063Z,19.34
2023-05-19T05:18:53.294Z,19.43
2023-05-19T05:21:20.579Z,19.52
2023-05-19T05:23:47.988Z,19.62
2023-05-19T05:26:19.252Z,19.71
2023-05-19T05:28:47.862Z,19.80
2023-05-19T05:31:15.600Z,19.87
2023-05-19T05:33:43.488Z,19.95
2023-05-19T05:36:10.688Z,20.03
2023-05-19T05:38:41.263Z,20.15
2023-05-19T05:41:08.978Z,20.31
2023-05-19T05:43:36.969Z,20.45
2023-05-19T05:46:04.405Z,20.54
2023-05-19T05:48:34.183Z,20.64
2023-05-19T05:51:01.864Z,20.73
2023-05-19T05:53:34.107Z,20.81
2023-05-19T05:56:01.979Z,20.91
2023-05-19T05:58:40.232Z,21.00
2023-05-19T06:01:10.526Z,21.10
2023-05-19T06:03:41.597Z,21.20
2023-05-19T06:06:08.720Z,21.31
2023-05-19T06:08:36.003Z,21.42
2023-05-19T06:11:09.855Z,21.54
2023-05-19T06:13:40.756Z,21.62
2023-05-19T06:16:09.399Z,21.71
2023-05-19T06:18:41.594Z,21.83
2023-05-19T06:21:09.741Z,21.98
2023-05-19T06:23:36.733Z,22.16
2023-05-19T06:26:04.413Z,22.30
2023-05-19T06:28:32.625Z,22.41
2023-05-19T06:30:59.840Z,22.53
2023-05-19T06:33:50.344Z,22.67
2023-05-19T06:36:17.217Z,22.79
2023-05-19T06:38:46.835Z,22.94
2023-05-19T06:41:14.564Z,23.06
2023-05-19T06:43:42.720Z,23.17
2023-05-19T06:46:14.022Z,23.30
2023-05-19T06:48:40.945Z,23.41
2023-05-19T06:51:09.784Z,23.54
2023-05-19T06:53:43.102Z,23.66
2023-05-19T06:56:10.046Z,23.79
2023-05-19T06:58:38.958Z,23.94
2023-05-19T07:01:06.534Z,24.05
2023-05-19T07:03:38.960Z,24.15
2023-05-19T07:06:08.331Z,24.25
2023-05-19T07:08:37.226Z,24.34
2023-05-19T07:11:05.056Z,24.44
2023-05-19T07:13:32.663Z,24.55
2023-05-19T07:15:59.493Z,24.67
2023-05-19T07:18:32.109Z,24.79
2023-05-19T07:20:59.112Z,24.89
2023-05-19T07:23:27.578Z,25.03
2023-05-19T07:25:55.935Z,25.18
2023-05-19T07:28:23.020Z,25.30
2023-05-19T07:30:50.102Z,25.40
2023-05-19T07:33:17.159Z,25.47
2023-05-19T07:35:45.155Z,25.55
2023-05-19T07:38:12.311Z,25.62
2023-05-19T07:40:39.219Z,25.71
2023-05-19T07:43:07.329Z,25.79
2023-05-19T07:45:34.439Z,25.90
2023-05-19T07:48:01.419Z,25.99
2023-05-19T07:50:28.642Z,26.03
2023-05-19T07:52:56.344Z,26.09
2023-05-19T07:55:23.345Z,26.16
2023-05-19T07:57:50.574Z,26.28
2023-05-19T08:00:18.491Z,26.37
2023-05-19T08:02:46.088Z,26.48
2023-05-19T08:05:13.366Z,26.59
2023-05-19T08:07:40.796Z,26.69
2023-05-19T08:10:08.036Z,26.80
2023-05-19T08:12:35.670Z,26.88
2023-05-19T08:15:02.655Z,26.99
2023-05-19T08:17:30.360Z,27.14
2023-05-19T08:19:57.228Z,27.20
2023-05-19T08:22:24.055Z,27.26
2023-05-19T08:24:51.213Z,27.42
2023-05-19T08:27:18.799Z,27.61
2023-05-19T08:29:45.926Z,27.77
2023-05-19T08:32:13.458Z,27.89
2023-05-19T08:34:41.041Z,27.90
2023-05-19T08:37:08.349Z,27.98
2023-05-19T08:39:36.422Z,28.11
2023-05-19T08:42:03.437Z,28.18
2023-05-19T08:44:30.675Z,28.23
2023-05-19T08:46:58.926Z,28.21
2023-05-19T08:49:28.847Z,28.35
2023-05-19T08:52:01.777Z,28.54
2023-05-19T08:54:33.389Z,28.84
2023-05-19T08:57:00.200Z,29.24
2023-05-19T08:59:27.173Z,29.71
2023-05-19T09:01:54.437Z,30.13
2023-05-19T09:04:21.726Z,30.28
2023-05-19T09:06:49.753Z,30.23
2023-05-19T09:09:17.036Z,30.30
2023-05-19T09:11:47.316Z,30.81
2023-05-19T09:14:14.395Z,31.39
2023-05-19T09:16:41.973Z,31.57
2023-05-19T09:19:14.744Z,31.71
2023-05-19T09:21:41.691Z,32.12
2023-05-19T09:24:09.394Z,32.41
2023-05-19T09:26:42.465Z,32.92
2023-05-19T09:29:13.578Z,33.47
2023-05-19T09:31:48.317Z,33.99
2023-05-19T09:34:17.543Z,34.12
2023-05-19T09:36:48.804Z,33.91
2023-05-19T09:39:16.233Z,33.74
2023-05-19T09:41:43.142Z,33.53
2023-05-19T09:44:20.916Z,33.20
2023-05-19T09:46:48.943Z,32.83
2023-05-19T09:49:29.784Z,32.55
2023-05-19T09:51:57.953Z,32.22
2023-05-19T09:54:25.789Z,31.95
2023-05-19T09:57:03.662Z,32.04
2023-05-19T09:59:33.361Z,32.34
2023-05-19T10:02:01.667Z,32.85
2023-05-19T10:04:29.687Z,33.56
2023-05-19T10:07:00.569Z,34.17
2023-05-19T10:09:28.648Z,34.65
2023-05-19T10:11:56.988Z,35.06
2023-05-19T10:14:25.404Z,35.59
2023-05-19T10:16:55.864Z,36.21
2023-05-19T10:19:29.453Z,36.75
2023-05-19T10:21:56.870Z,37.08
2023-05-19T10:24:24.193Z,37.55
2023-05-19T10:27:03.499Z,37.70
2023-05-19T10:29:33.202Z,37.80
2023-05-19T10:32:30.588Z,37.93
2023-05-19T10:35:10.087Z,38.30
2023-05-19T10:37:46.332Z,38.67
2023-05-19T10:40:30.319Z,38.58
2023-05-19T10:43:11.368Z,38.10
2023-05-19T10:45:48.912Z,37.55
2023-05-19T10:48:16.930Z,36.84
2023-05-19T10:50:45.915Z,36.10
2023-05-19T10:53:17.742Z,35.51
2023-05-19T10:55:48.762Z,34.97
2023-05-19T10:58:16.324Z,34.49
2023-05-19T11:00:43.285Z,34.15
2023-05-19T11:03:14.747Z,33.86
2023-05-19T11:05:45.176Z,33.52
2023-05-19T11:08:12.632Z,33.08
2023-05-19T11:10:39.885Z,33.06
2023-05-19T11:13:07.020Z,33.50
2023-05-19T11:15:38.345Z,34.12
2023-05-19T11:18:05.567Z,34.84
2023-05-19T11:20:34.523Z,35.48
2023-05-19T11:23:05.399Z,36.04
2023-05-19T11:25:41.937Z,36.68
2023-05-19T11:28:16.046Z,37.06
2023-05-19T11:30:43.669Z,37.26
2023-05-19T11:33:11.351Z,37.88
2023-05-19T11:35:39.302Z,38.44
2023-05-19T11:38:06.675Z,38.66
2023-05-19T11:40:34.559Z,38.84
2023-05-19T11:43:01.545Z,38.97
2023-05-19T11:45:30.681Z,38.95
2023-05-19T11:48:02.350Z,38.75
2023-05-19T11:50:32.818Z,38.37
2023-05-19T11:53:00.913Z,37.97
2023-05-19T11:55:28.828Z,37.52
2023-05-19T12:00:30.742Z,37.33
2023-05-19T12:02:57.607Z,37.00
2023-05-19T12:05:25.322Z,36.51
2023-05-19T12:07:53.174Z,36.08
2023-05-19T12:10:23.931Z,36.13
2023-05-19T12:12:51.144Z,36.35
2023-05-19T12:15:21.740Z,36.66
2023-05-19T12:17:59.820Z,37.04
2023-05-19T12:20:28.103Z,37.15
2023-05-19T12:22:55.151Z,37.00
2023-05-19T12:25:22.368Z,36.72
2023-05-19T12:27:52.239Z,36.81
2023-05-19T12:30:24.721Z,36.72
2023-05-19T12:32:53.693Z,36.51
2023-05-19T12:35:22.816Z,36.25
2023-05-19T12:37:51.872Z,35.96
2023-05-19T12:40:23.073Z,35.75
2023-05-19T12:42:52.886Z,35.78
2023-05-19T12:45:21.801Z,36.00
2023-05-19T12:47:48.897Z,36.32
2023-05-19T12:50:16.065Z,36.67
2023-05-19T12:52:44.708Z,36.97
2023-05-19T12:55:11.852Z,37.13
2023-05-19T12:57:41.183Z,37.38
2023-05-19T13:00:17.173Z,37.67
2023-05-19T13:03:04.497Z,37.86
2023-05-19T13:05:39.357Z,37.94
2023-05-19T13:08:10.634Z,37.76
2023-05-19T13:10:38.988Z,37.41
2023-05-19T13:13:08.303Z,37.08
2023-05-19T13:15:37.674Z,36.62
2023-05-19T13:18:07.963Z,35.91
2023-05-19T13:20:39.998Z,35.24
2023-05-19T13:23:06.913Z,34.72
2023-05-19T13:25:34.601Z,34.39
2023-05-19T13:28:04.807Z,34.06
2023-05-19T13:30:36.155Z,33.72
2023-05-19T13:33:03.636Z,33.40
2023-05-19T13:35:36.368Z,33.13
2023-05-19T13:38:09.146Z,32.88
2023-05-19T13:40:37.108Z,32.60
2023-05-19T13:43:04.158Z,32.41
2023-05-19T13:45:31.814Z,32.26
2023-05-19T13:47:58.981Z,32.01
2023-05-19T13:50:26.275Z,31.70
2023-05-19T13:52:53.397Z,31.49
2023-05-19T13:55:20.427Z,31.19
2023-05-19T13:57:47.492Z,31.04
2023-05-19T14:00:15.308Z,30.89
2023-05-19T14:02:42.574Z,30.83
2023-05-19T14:05:09.713Z,30.86
2023-05-19T14:07:36.925Z,30.88
2023-05-19T14:10:12.523Z,30.88
2023-05-19T14:12:55.258Z,30.82
2023-05-19T14:15:30.139Z,31.00
2023-05-19T14:17:58.355Z,31.15
2023-05-19T14:20:27.945Z,31.25
2023-05-19T14:23:01.836Z,31.38
2023-05-19T14:25:29.474Z,31.38
2023-05-19T14:27:56.401Z,31.32
2023-05-19T14:30:23.378Z,31.24
2023-05-19T14:32:50.605Z,31.25
2023-05-19T14:35:22.873Z,31.33
2023-05-19T14:37:50.564Z,31.38
2023-05-19T14:40:17.644Z,31.40
2023-05-19T14:42:44.596Z,31.33
2023-05-19T14:45:11.810Z,31.26
2023-05-19T14:47:39.927Z,31.15
2023-05-19T14:50:06.939Z,30.94
2023-05-19T14:52:34.324Z,30.88
2023-05-19T14:55:01.761Z,30.90
2023-05-19T14:57:28.920Z,30.85
2023-05-19T14:59:55.867Z,30.81
2023-05-19T15:02:22.805Z,30.79
2023-05-19T15:04:49.666Z,30.70
2023-05-19T15:07:16.828Z,30.62
2023-05-19T15:09:43.739Z,30.60
2023-05-19T15:12:15.646Z,30.63
2023-05-19T15:14:42.595Z,30.54
2023-05-19T15:17:10.155Z,30.47
2023-05-19T15:19:37.567Z,30.42
2023-05-19T15:22:05.261Z,30.36
2023-05-19T15:24:32.349Z,30.31
2023-05-19T15:27:00.297Z,30.35
2023-05-19T15:29:27.836Z,30.34
2023-05-19T15:32:00.027Z,30.23
2023-05-19T15:34:27.317Z,30.08
2023-05-19T15:36:54.326Z,29.92
2023-05-19T15:39:21.412Z,29.80
2023-05-19T15:41:50.240Z,29.72
2023-05-19T15:44:17.390Z,29.71
2023-05-19T15:46:44.355Z,29.52
2023-05-19T15:49:12.599Z,29.31
2023-05-19T15:51:40.385Z,29.12
2023-05-19T15:54:07.266Z,28.99
2023-05-19T15:56:34.493Z,28.96
2023-05-19T15:59:01.414Z,28.85
2023-05-19T16:01:28.443Z,28.73
2023-05-19T16:03:55.581Z,28.64
2023-05-19T16:06:24.088Z,28.57
2023-05-19T16:08:51.410Z,28.45
2023-05-19T16:11:20.163Z,28.30
2023-05-19T16:13:47.367Z,28.14
2023-05-19T16:16:14.376Z,28.00
2023-05-19T16:18:43.653Z,27.87
2023-05-19T16:21:11.171Z,27.71
2023-05-19T16:23:38.206Z,27.56
2023-05-19T16:26:05.079Z,27.43
2023-05-19T16:28:33.031Z,27.33
2023-05-19T16:31:00.143Z,27.23
2023-05-19T16:33:29.554Z,27.11
2023-05-19T16:35:58.196Z,27.00
2023-05-19T16:38:26.127Z,26.88
2023-05-19T16:40:58.105Z,26.74
2023-05-19T16:43:25.891Z,26.62
2023-05-19T16:45:53.010Z,26.51
2023-05-19T16:48:20.046Z,26.39
2023-05-19T16:50:50.128Z,26.28
2023-05-19T16:53:17.465Z,26.21
2023-05-19T16:55:44.392Z,26.12
2023-05-19T16:58:11.816Z,26.02
2023-05-19T17:00:38.862Z,25.91
2023-05-19T17:03:06.449Z,25.80
2023-05-19T17:05:35.753Z,25.71
2023-05-19T17:08:02.681Z,25.62
2023-05-19T17:10:29.905Z,25.52
2023-05-19T17:12:56.802Z,25.40
2023-05-19T17:15:23.879Z,25.30
2023-05-19T17:17:51.040Z,25.18
2023-05-19T17:20:17.959Z,25.05
2023-05-19T17:22:44.972Z,24.92
2023-05-19T17:25:11.904Z,24.80
2023-05-19T17:27:38.993Z,24.72
2023-05-19T17:30:07.085Z,24.61
2023-05-19T17:32:38.033Z,24.50
2023-05-19T17:35:06.196Z,24.40
2023-05-19T17:37:33.659Z,24.31
2023-05-19T17:40:00.654Z,24.22
2023-05-19T17:42:28.724Z,24.12
2023-05-19T17:44:55.554Z,24.03
2023-05-19T17:47:22.470Z,23.95
2023-05-19T17:49:52.469Z,23.88
2023-05-19T17:52:21.201Z,23.80
2023-05-19T17:54:48.520Z,23.74
2023-05-19T17:57:16.599Z,23.66
2023-05-19T17:59:43.957Z,23.58
2023-05-19T18:02:11.626Z,23.50
2023-05-19T18:04:39.474Z,23.44
2023-05-19T18:07:06.668Z,23.39
2023-05-19T18:09:39.223Z,23.32
2023-05-19T18:12:06.343Z,23.25
2023-05-19T18:14:34.375Z,23.19
2023-05-19T18:17:01.638Z,23.14
2023-05-19T18:19:28.761Z,23.07
2023-05-19T18:21:55.846Z,23.00
2023-05-19T18:24:22.732Z,22.91
2023-05-19T18:26:49.702Z,22.85
2023-05-19T18:29:16.989Z,22.76
2023-05-19T18:31:43.972Z,22.69
2023-05-19T18:34:10.921Z,22.63
2023-05-19T18:36:38.157Z,22.56
2023-05-19T18:39:05.103Z,22.52
2023-05-19T18:41:32.734Z,22.45
2023-05-19T18:43:59.665Z,22.39
2023-05-19T18:46:26.668Z,22.34
2023-05-19T18:48:53.658Z,22.29
2023-05-19T18:51:21.299Z,22.24
2023-05-19T18:53:54.700Z,22.20
2023-05-19T18:56:25.651Z,22.15
2023-05-19T18:58:53.652Z,22.10
2023-05-19T19:01:25.686Z,22.07
2023-05-19T19:03:52.837Z,22.02
2023-05-19T19:06:23.013Z,21.98
2023-05-19T19:08:51.230Z,21.94
2023-05-19T19:11:18.143Z,21.89
2023-05-19T19:13:45.755Z,21.84
2023-05-19T19:16:12.749Z,21.80
2023-05-19T19:18:40.131Z,21.76
2023-05-19T19:21:07.156Z,21.71
2023-05-19T19:23:34.384Z,21.67
2023-05-19T19:26:01.345Z,21.63
2023-05-19T19:28:28.512Z,21.58
2023-05-19T19:30:55.714Z,21.54
2023-05-19T19:33:22.749Z,21.50
2023-05-19T19:35:49.956Z,21.46
2023-05-19T19:38:16.950Z,21.42
2023-05-19T19:40:43.917Z,21.38
2023-05-19T19:43:10.796Z,21.36
2023-05-19T19:45:41.132Z,21.33
2023-05-19T19:48:07.970Z,21.29
2023-05-19T19:50:35.108Z,21.24
2023-05-19T19:53:02.161Z,21.20
2023-05-19T19:55:30.364Z,21.17
2023-05-19T19:57:57.552Z,21.14
2023-05-19T20:00:24.513Z,21.11
2023-05-19T20:03:03.062Z,21.07
2023-05-19T20:05:32.350Z,21.04
2023-05-19T20:07:59.511Z,21.01
2023-05-19T20:10:26.716Z,20.97
2023-05-19T20:12:53.969Z,20.94
2023-05-19T20:15:21.162Z,20.90
2023-05-19T20:17:48.498Z,20.86
2023-05-19T20:20:15.816Z,20.82
2023-05-19T20:22:46.221Z,20.80
2023-05-19T20:25:13.097Z,20.76
2023-05-19T20:27:40.198Z,20.72
2023-05-19T20:30:07.857Z,20.67
2023-05-19T20:32:35.415Z,20.63
2023-05-19T20:35:02.364Z,20.59
2023-05-19T20:37:29.592Z,20.57
2023-05-19T20:39:56.726Z,20.55
2023-05-19T20:42:29.937Z,20.50
2023-05-19T20:45:03.296Z,20.44
2023-05-19T20:47:30.919Z,20.37
2023-05-19T20:49:58.312Z,20.33
2023-05-19T20:52:31.504Z,20.31
2023-05-19T20:54:58.327Z,20.27
2023-05-19T20:57:27.166Z,20.23
2023-05-19T21:00:01.021Z,20.21
2023-05-19T21:02:28.124Z,20.18
2023-05-19T21:04:54.988Z,20.17
2023-05-19T21:07:22.131Z,20.14
2023-05-19T21:09:50.917Z,20.12
2023-05-19T21:12:18.494Z,20.11
2023-05-19T21:14:47.734Z,20.10
2023-05-19T21:17:20.973Z,20.09
2023-05-19T21:19:48.567Z,20.08
2023-05-19T21:22:17.042Z,20.07
2023-05-19T21:24:44.198Z,20.05
2023-05-19T21:27:11.465Z,20.01
2023-05-19T21:29:38.589Z,19.96
2023-05-19T21:32:05.649Z,19.91
2023-05-19T21:34:32.658Z,19.88
2023-05-19T21:37:00.070Z,19.86
2023-05-19T21:39:26.953Z,19.82
2023-05-19T21:41:53.914Z,19.77
2023-05-19T21:44:22.883Z,19.74
2023-05-19T21:46:49.810Z,19.72
2023-05-19T21:49:17.072Z,19.68
2023-05-19T21:51:43.972Z,19.64
2023-05-19T21:54:11.106Z,19.62
2023-05-19T21:56:38.237Z,19.58
2023-05-19T21:59:05.096Z,19.55
2023-05-19T22:01:33.262Z,19.52
2023-05-19T22:04:00.829Z,19.47
2023-05-19T22:06:27.792Z,19.40
2023-05-19T22:08:55.211Z,19.33
2023-05-19T22:11:23.513Z,19.27
2023-05-19T22:13:50.834Z,19.25
2023-05-19T22:16:17.702Z,19.20
2023-05-19T22:18:44.574Z,19.15
2023-05-19T22:21:11.533Z,19.12
2023-05-19T22:23:38.745Z,19.09
2023-05-19T22:26:06.694Z,19.04
2023-05-19T22:28:34.357Z,19.01
2023-05-19T22:31:01.265Z,19.01
2023-05-19T22:33:28.534Z,18.98
2023-05-19T22:35:55.737Z,18.93
2023-05-19T22:38:22.621Z,18.89
2023-05-19T22:40:49.774Z,18.84
2023-05-19T22:43:16.607Z,18.80
2023-05-19T22:45:43.500Z,18.77
2023-05-19T22:48:11.007Z,18.75
2023-05-19T22:50:38.867Z,18.71
2023-05-19T22:53:06.070Z,18.69
2023-05-19T22:55:33.847Z,18.67
2023-05-19T22:58:00.909Z,18.67
2023-05-19T23:00:27.870Z,18.67
2023-05-19T23:02:54.924Z,18.66
2023-05-19T23:05:22.262Z,18.63
2023-05-19T23:07:49.108Z,18.62
2023-05-19T23:10:16.184Z,18.60
2023-05-19T23:12:43.203Z,18.58
2023-05-19T23:15:10.505Z,18.56
2023-05-19T23:17:37.716Z,18.53
2023-05-19T23:20:05.393Z,18.49
2023-05-19T23:22:32.709Z,18.45
2023-05-19T23:25:05.025Z,18.43
2023-05-19T23:27:33.015Z,18.41
2023-05-19T23:30:00.738Z,18.38
2023-05-19T23:32:32.916Z,18.33
2023-05-19T23:35:12.214Z,18.27
2023-05-19T23:37:39.408Z,18.20
2023-05-19T23:40:07.765Z,18.13
2023-05-19T23:42:36.045Z,18.08
2023-05-19T23:45:09.082Z,18.05
2023-05-19T23:47:36.063Z,17.99
2023-05-19T23:50:03.122Z,17.94
2023-05-19T23:52:32.168Z,17.89
2023-05-19T23:54:59.100Z,17.82
2023-05-19T23:57:26.074Z,17.78
2023-05-19T23:59:53.012Z,17.73
